sensor_id;sensor_type;location;lat;lon;timestamp;temperature;humidity
20985;DHT22;10651;47.552;7.606;2023-03-11T16:36:15;9.00;99.90
20985;DHT22;10651;47.552;7.606;2023-03-11T16:46:25;9.30;99.90
20985;DHT22;10651;47.552;7.606;2023-03-11T17:01:53;8.90;99.90
20985;DHT22;10651;47.552;7.606;2023-03-11T17:04:38;8.90;99.90
20985;DHT22;10651;47.552;7.606;2023-03-11T17:07:10;8.70;99.90
20985;DHT22;10651;47.552;7.606;2023-03-11T17:09:42;8.50;99.90
20985;DHT22;10651;47.552;7.606;2023-03-11T17:12:49;8.50;99.90
20985;DHT22;10651;47.552;7.606;2023-03-11T17:15:37;8.70;99.90
20985;DHT22;10651;47.552;7.606;2023-03-11T17:18:07;8.70;99.90
20985;DHT22;10651;47.552;7.606;2023-03-11T17:20:33;8.60;99.90
20985;DHT22;10651;47.552;7.606;2023-03-11T17:23:04;8.50;99.90
20985;DHT22;10651;47.552;7.606;2023-03-11T17:25:33;8.40;99.90
20985;DHT22;10651;47.552;7.606;2023-03-11T17:28:08;8.40;99.90
20985;DHT22;10651;47.552;7.606;2023-03-11T17:30:43;8.40;99.90
20985;DHT22;10651;47.552;7.606;2023-03-11T17:33:14;8.40;99.90
20985;DHT22;10651;47.552;7.606;2023-03-11T17:35:40;8.40;99.90
20985;DHT22;10651;47.552;7.606;2023-03-11T17:38:06;8.40;99.90
20985;DHT22;10651;47.552;7.606;2023-03-11T17:40:32;8.20;99.90
20985;DHT22;10651;47.552;7.606;2023-03-11T17:42:58;8.20;99.90
20985;DHT22;10651;47.552;7.606;2023-03-11T17:45:24;8.20;99.90
20985;DHT22;10651;47.552;7.606;2023-03-11T17:47:50;8.10;99.90
20985;DHT22;10651;47.552;7.606;2023-03-11T17:50:16;8.20;99.90
20985;DHT22;10651;47.552;7.606;2023-03-11T17:52:42;8.20;99.90
20985;DHT22;10651;47.552;7.606;2023-03-11T17:55:15;8.30;99.90
20985;DHT22;10651;47.552;7.606;2023-03-11T17:57:53;8.40;99.90
20985;DHT22;10651;47.552;7.606;2023-03-11T18:00:21;8.40;99.90
20985;DHT22;10651;47.552;7.606;2023-03-11T18:02:47;8.20;99.90
20985;DHT22;10651;47.552;7.606;2023-03-11T18:05:21;8.20;99.90
20985;DHT22;10651;47.552;7.606;2023-03-11T18:07:56;8.30;99.90
20985;DHT22;10651;47.552;7.606;2023-03-11T18:10:25;8.30;99.90
20985;DHT22;10651;47.552;7.606;2023-03-11T18:12:54;8.30;99.90
20985;DHT22;10651;47.552;7.606;2023-03-11T18:15:24;8.30;99.90
20985;DHT22;10651;47.552;7.606;2023-03-11T18:17:56;8.20;99.90
20985;DHT22;10651;47.552;7.606;2023-03-11T18:20:30;8.20;99.90
20985;DHT22;10651;47.552;7.606;2023-03-11T18:22:59;8.20;99.90
20985;DHT22;10651;47.552;7.606;2023-03-11T18:25:30;8.10;99.90
20985;DHT22;10651;47.552;7.606;2023-03-11T18:28:06;8.10;99.90
20985;DHT22;10651;47.552;7.606;2023-03-11T18:30:44;8.20;99.90
20985;DHT22;10651;47.552;7.606;2023-03-11T18:33:15;8.10;99.90
20985;DHT22;10651;47.552;7.606;2023-03-11T18:35:41;8.10;99.90
20985;DHT22;10651;47.552;7.606;2023-03-11T18:38:19;8.10;99.90
20985;DHT22;10651;47.552;7.606;2023-03-11T18:40:54;8.00;99.90
20985;DHT22;10651;47.552;7.606;2023-03-11T18:43:27;7.90;99.90
20985;DHT22;10651;47.552;7.606;2023-03-11T18:46:06;7.90;99.90
20985;DHT22;10651;47.552;7.606;2023-03-11T18:48:59;7.90;99.90
20985;DHT22;10651;47.552;7.606;2023-03-11T18:51:33;7.90;99.90
20985;DHT22;10651;47.552;7.606;2023-03-11T18:53:59;7.90;99.90
20985;DHT22;10651;47.552;7.606;2023-03-11T18:56:26;8.20;99.90
20985;DHT22;10651;47.552;7.606;2023-03-11T19:02:09;8.50;99.90
20985;DHT22;10651;47.552;7.606;2023-03-11T19:04:38;8.40;99.90
20985;DHT22;10651;47.552;7.606;2023-03-11T19:07:04;8.30;99.90
20985;DHT22;10651;47.552;7.606;2023-03-11T19:09:30;8.30;99.90
20985;DHT22;10651;47.552;7.606;2023-03-11T19:11:56;8.20;99.90
20985;DHT22;10651;47.552;7.606;2023-03-11T19:14:22;8.20;99.90
20985;DHT22;10651;47.552;7.606;2023-03-11T19:16:48;8.30;99.90
20985;DHT22;10651;47.552;7.606;2023-03-11T19:19:14;8.20;99.90
20985;DHT22;10651;47.552;7.606;2023-03-11T19:21:40;8.10;99.90
20985;DHT22;10651;47.552;7.606;2023-03-11T19:24:06;8.10;99.90
20985;DHT22;10651;47.552;7.606;2023-03-11T19:26:32;7.90;99.90
20985;DHT22;10651;47.552;7.606;2023-03-11T19:29:10;7.80;99.90
20985;DHT22;10651;47.552;7.606;2023-03-11T19:31:36;8.00;99.90
20985;DHT22;10651;47.552;7.606;2023-03-11T19:34:23;8.00;99.90
20985;DHT22;10651;47.552;7.606;2023-03-11T19:36:55;8.00;99.90
20985;DHT22;10651;47.552;7.606;2023-03-11T19:39:25;8.00;99.90
20985;DHT22;10651;47.552;7.606;2023-03-11T19:42:14;8.00;99.90
20985;DHT22;10651;47.552;7.606;2023-03-11T19:44:42;8.10;99.90
20985;DHT22;10651;47.552;7.606;2023-03-11T19:47:14;7.90;99.90
20985;DHT22;10651;47.552;7.606;2023-03-11T19:52:22;8.00;99.90
20985;DHT22;10651;47.552;7.606;2023-03-11T19:54:50;8.00;99.90
20985;DHT22;10651;47.552;7.606;2023-03-11T19:57:18;7.90;99.90
20985;DHT22;10651;47.552;7.606;2023-03-11T19:59:47;7.90;99.90
20985;DHT22;10651;47.552;7.606;2023-03-11T20:09:06;7.90;99.90
20985;DHT22;10651;47.552;7.606;2023-03-11T20:11:41;7.90;99.90
20985;DHT22;10651;47.552;7.606;2023-03-11T20:17:26;7.90;99.90
20985;DHT22;10651;47.552;7.606;2023-03-11T20:19:54;8.00;99.90
20985;DHT22;10651;47.552;7.606;2023-03-11T20:22:31;8.00;99.90
20985;DHT22;10651;47.552;7.606;2023-03-11T20:25:00;8.00;99.90
20985;DHT22;10651;47.552;7.606;2023-03-11T20:27:35;8.00;99.90
20985;DHT22;10651;47.552;7.606;2023-03-11T20:30:10;8.00;99.90
20985;DHT22;10651;47.552;7.606;2023-03-11T20:32:46;7.90;99.90
20985;DHT22;10651;47.552;7.606;2023-03-11T20:35:25;7.90;99.90
20985;DHT22;10651;47.552;7.606;2023-03-11T20:37:57;7.90;99.90
20985;DHT22;10651;47.552;7.606;2023-03-11T20:40:31;7.80;99.90
20985;DHT22;10651;47.552;7.606;2023-03-11T20:42:57;7.80;99.90
20985;DHT22;10651;47.552;7.606;2023-03-11T20:45:23;7.80;99.90
20985;DHT22;10651;47.552;7.606;2023-03-11T20:47:49;7.70;99.90
20985;DHT22;10651;47.552;7.606;2023-03-11T20:50:24;7.70;99.90
20985;DHT22;10651;47.552;7.606;2023-03-11T20:53:05;7.70;99.90
20985;DHT22;10651;47.552;7.606;2023-03-11T20:55:31;7.70;99.90
20985;DHT22;10651;47.552;7.606;2023-03-11T20:58:14;7.70;99.90
20985;DHT22;10651;47.552;7.606;2023-03-11T21:00:52;7.70;99.90
20985;DHT22;10651;47.552;7.606;2023-03-11T21:03:18;7.70;99.90
20985;DHT22;10651;47.552;7.606;2023-03-11T21:06:33;7.70;99.90
20985;DHT22;10651;47.552;7.606;2023-03-11T21:09:10;7.70;99.90
20985;DHT22;10651;47.552;7.606;2023-03-11T21:11:42;7.70;99.90
20985;DHT22;10651;47.552;7.606;2023-03-11T21:14:13;7.70;99.90
20985;DHT22;10651;47.552;7.606;2023-03-11T21:16:39;7.70;99.90
20985;DHT22;10651;47.552;7.606;2023-03-11T21:19:16;7.70;99.90
20985;DHT22;10651;47.552;7.606;2023-03-11T21:21:42;7.70;99.90
20985;DHT22;10651;47.552;7.606;2023-03-11T21:26:53;7.70;99.90
20985;DHT22;10651;47.552;7.606;2023-03-11T21:29:28;7.70;99.90
20985;DHT22;10651;47.552;7.606;2023-03-11T21:32:02;7.70;99.90
20985;DHT22;10651;47.552;7.606;2023-03-11T21:34:39;7.60;99.90
20985;DHT22;10651;47.552;7.606;2023-03-11T21:37:15;7.60;99.90
20985;DHT22;10651;47.552;7.606;2023-03-11T21:42:20;7.60;99.90
20985;DHT22;10651;47.552;7.606;2023-03-11T21:44:46;7.50;99.90
20985;DHT22;10651;47.552;7.606;2023-03-11T21:47:12;7.60;99.90
20985;DHT22;10651;47.552;7.606;2023-03-11T21:49:43;7.60;99.90
20985;DHT22;10651;47.552;7.606;2023-03-11T21:52:18;7.60;99.90
20985;DHT22;10651;47.552;7.606;2023-03-11T21:54:43;7.60;99.90
20985;DHT22;10651;47.552;7.606;2023-03-11T21:57:09;7.60;99.90
20985;DHT22;10651;47.552;7.606;2023-03-11T21:59:35;7.70;99.90
20985;DHT22;10651;47.552;7.606;2023-03-11T22:02:01;7.70;99.90
20985;DHT22;10651;47.552;7.606;2023-03-11T22:04:28;7.70;99.90
20985;DHT22;10651;47.552;7.606;2023-03-11T22:06:54;7.70;99.90
20985;DHT22;10651;47.552;7.606;2023-03-11T22:09:20;7.70;99.90
20985;DHT22;10651;47.552;7.606;2023-03-11T22:11:50;7.70;99.90
20985;DHT22;10651;47.552;7.606;2023-03-11T22:14:16;7.70;99.90
20985;DHT22;10651;47.552;7.606;2023-03-11T22:16:42;7.70;99.90
20985;DHT22;10651;47.552;7.606;2023-03-11T22:19:07;7.60;99.90
20985;DHT22;10651;47.552;7.606;2023-03-11T22:21:35;7.60;99.90
20985;DHT22;10651;47.552;7.606;2023-03-11T22:24:01;7.60;99.90
20985;DHT22;10651;47.552;7.606;2023-03-11T22:26:27;7.60;99.90
20985;DHT22;10651;47.552;7.606;2023-03-11T22:28:52;7.60;99.90
20985;DHT22;10651;47.552;7.606;2023-03-11T22:31:18;7.60;99.90
20985;DHT22;10651;47.552;7.606;2023-03-11T22:33:44;7.60;99.90
20985;DHT22;10651;47.552;7.606;2023-03-11T22:36:10;7.70;99.90
20985;DHT22;10651;47.552;7.606;2023-03-11T22:38:36;7.70;99.90
20985;DHT22;10651;47.552;7.606;2023-03-11T22:41:06;7.70;99.90
20985;DHT22;10651;47.552;7.606;2023-03-11T22:43:36;7.70;99.90
20985;DHT22;10651;47.552;7.606;2023-03-11T22:46:03;7.70;99.90
20985;DHT22;10651;47.552;7.606;2023-03-11T22:48:30;7.60;99.90
20985;DHT22;10651;47.552;7.606;2023-03-11T22:50:56;7.70;99.90
20985;DHT22;10651;47.552;7.606;2023-03-11T22:53:25;7.70;99.90
20985;DHT22;10651;47.552;7.606;2023-03-11T22:55:51;7.70;99.90
20985;DHT22;10651;47.552;7.606;2023-03-11T22:58:17;7.70;99.90
20985;DHT22;10651;47.552;7.606;2023-03-11T23:00:43;7.70;99.90
20985;DHT22;10651;47.552;7.606;2023-03-11T23:03:10;7.70;99.90
20985;DHT22;10651;47.552;7.606;2023-03-11T23:05:36;7.70;99.90
20985;DHT22;10651;47.552;7.606;2023-03-11T23:08:08;7.80;99.90
